Time;durP1;ratioP1;P1;durP2;ratioP2;P2;SDS_P1;SDS_P2;PMS_P1;PMS_P2;Temp;Humidity;BMP_temperature;BMP_pressure;BME280_temperature;BME280_humidity;BME280_pressure;Samples;Min_cycle;Max_cycle;Signal;HPM_P1;HPM_P2
2022/12/01 00:01:18;;;;;;;26.83;14.70;;;7.00;99.90;;;;;;5037239;28;20250;-56
2022/12/01 00:03:45;;;;;;;28.47;14.50;;;7.00;99.90;;;;;;5036860;28;20256;-56
2022/12/01 00:06:17;;;;;;;28.90;14.80;;;6.90;99.90;;;;;;5038087;28;20279;-57
2022/12/01 00:11:34;;;;;;;29.67;14.23;;;6.80;99.90;;;;;;5039911;28;20311;-56
2022/12/01 00:14:01;;;;;;;31.73;15.00;;;6.90;99.90;;;;;;5041266;28;20570;-56
2022/12/01 00:16:28;;;;;;;26.87;13.87;;;7.00;99.90;;;;;;5039978;28;21041;-56
2022/12/01 00:18:56;;;;;;;27.50;14.07;;;7.00;99.90;;;;;;5039467;28;20198;-56
2022/12/01 00:21:24;;;;;;;28.73;13.37;;;7.00;99.90;;;;;;5037103;28;20677;-56
2022/12/01 00:23:53;;;;;;;26.07;14.27;;;6.90;99.90;;;;;;5035238;28;20192;-56
2022/12/01 00:26:21;;;;;;;31.00;15.07;;;6.90;99.90;;;;;;5032857;28;20239;-56
2022/12/01 00:28:56;;;;;;;26.63;14.27;;;6.90;99.90;;;;;;5030757;28;20297;-57
2022/12/01 00:31:23;;;;;;;28.07;15.93;;;6.80;99.90;;;;;;5031342;28;20212;-56
2022/12/01 00:33:51;;;;;;;30.87;14.87;;;6.80;99.90;;;;;;5038505;28;20203;-56
2022/12/01 00:36:18;;;;;;;28.47;14.57;;;6.80;99.90;;;;;;5031645;28;20222;-56
2022/12/01 00:38:45;;;;;;;27.23;14.20;;;6.80;99.90;;;;;;5023335;28;20564;-57
2022/12/01 00:41:12;;;;;;;29.17;14.30;;;6.70;99.90;;;;;;5038008;28;20322;-56
2022/12/01 00:43:39;;;;;;;30.23;15.50;;;6.70;99.90;;;;;;5022412;28;20224;-56
2022/12/01 00:46:06;;;;;;;31.40;15.40;;;6.70;99.90;;;;;;5038486;28;20603;-59
2022/12/01 00:48:33;;;;;;;30.67;14.30;;;6.70;99.90;;;;;;5038700;28;20206;-56
2022/12/01 00:51:00;;;;;;;26.57;13.97;;;6.80;99.90;;;;;;5037319;28;20209;-57
2022/12/01 00:53:27;;;;;;;24.90;13.37;;;6.80;99.90;;;;;;5037085;28;20335;-56
2022/12/01 00:55:54;;;;;;;30.90;14.93;;;6.80;99.90;;;;;;5039945;28;20705;-57
2022/12/01 00:58:22;;;;;;;25.90;14.47;;;6.70;99.90;;;;;;5038987;28;20200;-57
2022/12/01 01:00:55;;;;;;;27.13;14.23;;;6.60;99.90;;;;;;5033933;28;20629;-56
2022/12/01 01:03:22;;;;;;;31.20;14.37;;;6.60;99.90;;;;;;5036150;28;20201;-56
2022/12/01 01:05:48;;;;;;;27.53;13.30;;;6.70;99.90;;;;;;5037482;28;20233;-56
2022/12/01 01:08:15;;;;;;;31.53;14.97;;;6.70;99.90;;;;;;5037090;28;20203;-56
2022/12/01 01:10:44;;;;;;;25.27;13.47;;;6.70;99.90;;;;;;5039177;28;20250;-56
2022/12/01 01:13:13;;;;;;;26.47;13.63;;;6.70;99.90;;;;;;5038520;28;20204;-56
2022/12/01 01:15:40;;;;;;;32.83;14.53;;;6.80;99.90;;;;;;5039087;28;20728;-56
2022/12/01 01:18:08;;;;;;;29.93;14.10;;;6.70;99.90;;;;;;5034596;28;20198;-56
2022/12/01 01:20:35;;;;;;;29.57;14.50;;;6.70;99.90;;;;;;5036724;28;20289;-57
2022/12/01 01:23:02;;;;;;;27.03;13.77;;;6.70;99.90;;;;;;5037820;28;20715;-56
2022/12/01 01:25:31;;;;;;;25.73;13.33;;;6.80;99.90;;;;;;5038490;28;20211;-57
2022/12/01 01:27:57;;;;;;;30.60;13.63;;;6.80;99.90;;;;;;5038061;28;20243;-57
2022/12/01 01:30:24;;;;;;;28.33;13.53;;;6.80;99.90;;;;;;5039001;28;20674;-57
2022/12/01 01:32:51;;;;;;;29.53;14.27;;;6.70;99.90;;;;;;5035073;28;20474;-56
2022/12/01 01:35:18;;;;;;;28.03;13.13;;;6.70;99.90;;;;;;5031552;28;20219;-56
2022/12/01 01:37:45;;;;;;;29.17;13.37;;;6.70;99.90;;;;;;5031767;28;20214;-58
2022/12/01 01:40:11;;;;;;;27.03;14.10;;;6.70;99.90;;;;;;5050745;28;20236;-58
2022/12/01 01:42:38;;;;;;;29.37;14.90;;;6.80;99.90;;;;;;5049736;28;20212;-56
2022/12/01 01:45:22;;;;;;;29.27;14.57;;;6.80;99.90;;;;;;5018171;28;20205;-56
2022/12/01 01:47:51;;;;;;;25.53;13.97;;;6.80;99.90;;;;;;5038240;28;20200;-56
2022/12/01 01:50:23;;;;;;;27.60;14.40;;;7.00;99.90;;;;;;5038879;28;20649;-57
2022/12/01 01:52:59;;;;;;;29.40;15.10;;;6.90;99.90;;;;;;5039030;28;20207;-57
2022/12/01 01:55:28;;;;;;;27.77;14.13;;;6.90;99.90;;;;;;5035832;28;20648;-56
2022/12/01 01:57:55;;;;;;;31.07;16.03;;;7.00;99.90;;;;;;5039687;28;20592;-56
2022/12/01 02:00:22;;;;;;;29.83;15.80;;;6.90;99.90;;;;;;5035705;28;20235;-57
2022/12/01 02:02:50;;;;;;;33.53;15.50;;;6.80;99.90;;;;;;5021515;28;20198;-57
2022/12/01 02:05:28;;;;;;;35.53;15.60;;;6.90;99.90;;;;;;5040752;28;20284;-57
2022/12/01 02:07:57;;;;;;;28.67;16.00;;;6.80;99.90;;;;;;5043098;28;20212;-57
2022/12/01 02:10:44;;;;;;;30.70;15.67;;;6.80;99.90;;;;;;5042026;28;20248;-56
2022/12/01 02:13:46;;;;;;;33.90;15.93;;;6.80;99.90;;;;;;5032393;28;20229;-57
2022/12/01 02:16:25;;;;;;;36.60;16.43;;;6.80;99.90;;;;;;5041534;28;20217;-56
2022/12/01 02:19:22;;;;;;;35.87;16.77;;;6.90;99.90;;;;;;5042588;28;20570;-56
2022/12/01 02:22:21;;;;;;;33.30;15.27;;;6.80;99.90;;;;;;5037505;28;20253;-56
2022/12/01 02:24:57;;;;;;;30.47;16.27;;;6.80;99.90;;;;;;5042640;28;20270;-57
2022/12/01 02:28:18;;;;;;;31.47;14.93;;;6.70;99.90;;;;;;5043655;28;20203;-57
2022/12/01 02:30:53;;;;;;;31.63;15.97;;;6.80;99.90;;;;;;4980720;28;20230;-56
2022/12/01 02:33:36;;;;;;;31.20;15.80;;;6.80;99.90;;;;;;5042122;28;20626;-58
2022/12/01 02:36:27;;;;;;;30.83;14.90;;;6.80;99.90;;;;;;5034799;28;20802;-57
2022/12/01 02:39:06;;;;;;;30.90;16.17;;;6.90;99.90;;;;;;5035460;28;20224;-56
2022/12/01 02:41:45;;;;;;;31.17;14.37;;;6.90;99.90;;;;;;5036696;28;20202;-57
2022/12/01 02:44:29;;;;;;;28.40;14.90;;;6.90;99.90;;;;;;5041593;28;20197;-56
2022/12/01 02:47:13;;;;;;;29.57;14.50;;;6.90;99.90;;;;;;5040712;28;20208;-57
2022/12/01 02:49:45;;;;;;;31.40;15.00;;;6.90;99.90;;;;;;5040923;28;20296;-56
2022/12/01 02:52:13;;;;;;;28.20;16.03;;;6.90;99.90;;;;;;5039744;28;20220;-56
2022/12/01 02:54:43;;;;;;;30.60;15.80;;;6.90;99.90;;;;;;5037523;28;20204;-56
2022/12/01 02:57:13;;;;;;;28.40;14.67;;;7.00;99.90;;;;;;5038692;28;20288;-56
2022/12/01 02:59:45;;;;;;;26.30;14.70;;;6.90;99.90;;;;;;5040061;28;20600;-59
2022/12/01 03:02:28;;;;;;;23.97;13.53;;;6.90;99.90;;;;;;5041654;28;20565;-56
2022/12/01 03:05:31;;;;;;;30.40;15.63;;;6.90;99.90;;;;;;5040780;28;20202;-62
2022/12/01 03:08:25;;;;;;;29.50;15.33;;;7.10;99.90;;;;;;5027682;28;20206;-56
2022/12/01 03:10:57;;;;;;;27.17;14.70;;;7.20;99.90;;;;;;5038005;28;20597;-55
2022/12/01 03:13:53;;;;;;;24.87;14.90;;;7.10;99.90;;;;;;5038736;28;20196;-57
2022/12/01 03:16:32;;;;;;;29.67;14.57;;;6.90;99.90;;;;;;5038099;28;20209;-57
2022/12/01 03:19:25;;;;;;;28.23;14.60;;;6.90;99.90;;;;;;5036659;28;20242;-56
2022/12/01 03:22:15;;;;;;;27.20;13.90;;;6.90;99.90;;;;;;5042261;28;20230;-55
2022/12/01 03:24:46;;;;;;;26.53;14.20;;;6.80;99.90;;;;;;5039822;28;20194;-57
2022/12/01 03:27:16;;;;;;;26.73;14.67;;;6.80;99.90;;;;;;5038012;28;20309;-56
2022/12/01 03:29:46;;;;;;;27.47;14.73;;;7.00;99.90;;;;;;5039234;28;20235;-57
2022/12/01 03:32:20;;;;;;;23.50;13.57;;;7.00;99.90;;;;;;5040988;28;20650;-55
2022/12/01 03:34:55;;;;;;;26.90;14.20;;;7.00;99.90;;;;;;5039745;28;20295;-57
2022/12/01 03:38:13;;;;;;;30.07;15.10;;;6.80;99.90;;;;;;5037619;28;20322;-58
2022/12/01 03:40:40;;;;;;;26.07;13.77;;;6.90;99.90;;;;;;5035856;28;20280;-55
2022/12/01 03:43:12;;;;;;;25.43;14.50;;;6.80;99.90;;;;;;5036796;28;20217;-55
2022/12/01 03:45:49;;;;;;;25.83;13.93;;;6.90;99.90;;;;;;5034192;28;20295;-56
2022/12/01 03:48:17;;;;;;;26.87;14.10;;;6.90;99.90;;;;;;5037930;28;20247;-55
2022/12/01 03:51:08;;;;;;;24.97;13.93;;;7.00;99.90;;;;;;5037916;28;20236;-55
2022/12/01 03:54:04;;;;;;;25.47;13.70;;;7.10;99.90;;;;;;5037001;28;20297;-56
2022/12/01 03:56:42;;;;;;;25.47;14.47;;;7.00;99.90;;;;;;5031311;28;20234;-56
2022/12/01 03:59:11;;;;;;;26.53;15.23;;;7.00;99.90;;;;;;5036554;28;20287;-56
2022/12/01 04:01:38;;;;;;;25.00;14.97;;;7.00;99.90;;;;;;5037299;28;20294;-56
2022/12/01 04:04:12;;;;;;;26.43;14.40;;;6.90;99.90;;;;;;5034143;28;21114;-56
2022/12/01 04:06:42;;;;;;;29.73;15.37;;;6.90;99.90;;;;;;5037387;28;20297;-57
2022/12/01 04:09:08;;;;;;;24.67;15.17;;;6.90;99.90;;;;;;5037939;28;20204;-56
2022/12/01 04:14:21;;;;;;;28.43;15.90;;;7.00;99.90;;;;;;5037609;28;20600;-56
2022/12/01 04:16:47;;;;;;;27.40;16.10;;;7.00;99.90;;;;;;5038247;28;20214;-56
2022/12/01 04:19:14;;;;;;;29.37;14.90;;;6.90;99.90;;;;;;5035204;28;20376;-56
2022/12/01 04:21:41;;;;;;;27.73;15.07;;;7.00;99.90;;;;;;5038760;28;20614;-56
2022/12/01 04:24:08;;;;;;;31.17;16.47;;;7.00;99.90;;;;;;5038604;28;20238;-57
2022/12/01 04:26:36;;;;;;;28.97;15.83;;;6.90;99.90;;;;;;5038426;28;20268;-56
2022/12/01 04:29:08;;;;;;;26.23;14.77;;;7.00;99.90;;;;;;5036407;28;20206;-56
2022/12/01 04:31:35;;;;;;;35.07;16.30;;;6.90;99.90;;;;;;5038129;28;20217;-56
2022/12/01 04:34:03;;;;;;;30.90;15.20;;;6.90;99.90;;;;;;5036068;28;20259;-58
2022/12/01 04:36:32;;;;;;;29.03;16.30;;;6.80;99.90;;;;;;5036186;28;20213;-56
2022/12/01 04:38:59;;;;;;;27.23;15.33;;;6.70;99.90;;;;;;5037284;28;20604;-56
2022/12/01 04:41:27;;;;;;;31.57;15.73;;;6.60;99.90;;;;;;5035870;28;20218;-56
2022/12/01 04:43:55;;;;;;;30.33;16.57;;;6.60;99.90;;;;;;5036153;28;20202;-56
2022/12/01 04:46:22;;;;;;;29.27;15.77;;;6.60;99.90;;;;;;5033752;28;20303;-56
2022/12/01 04:48:49;;;;;;;31.37;16.73;;;6.60;99.90;;;;;;5034990;28;20229;-56
2022/12/01 04:51:16;;;;;;;33.47;16.47;;;6.50;99.90;;;;;;5030495;28;20205;-57
2022/12/01 04:53:43;;;;;;;29.97;15.90;;;6.50;99.90;;;;;;5038231;28;20539;-56
2022/12/01 04:56:09;;;;;;;38.27;17.53;;;6.60;99.90;;;;;;5022136;28;20591;-56
2022/12/01 04:58:37;;;;;;;32.43;16.77;;;6.60;99.90;;;;;;5033001;28;20212;-58
2022/12/01 05:01:10;;;;;;;29.87;16.87;;;6.60;99.90;;;;;;5036861;28;20230;-56
2022/12/01 05:03:43;;;;;;;29.40;15.73;;;6.70;99.90;;;;;;5038034;28;20200;-56
2022/12/01 05:06:13;;;;;;;34.90;16.57;;;6.70;99.90;;;;;;5036443;28;20569;-56
2022/12/01 05:08:40;;;;;;;32.60;16.67;;;6.60;99.90;;;;;;5035307;28;20289;-56
2022/12/01 05:11:10;;;;;;;34.67;17.03;;;6.70;99.90;;;;;;5037175;28;20597;-56
2022/12/01 05:13:39;;;;;;;32.90;18.03;;;6.60;99.90;;;;;;5038103;28;20203;-56
2022/12/01 05:16:08;;;;;;;35.17;17.50;;;6.60;99.90;;;;;;5036779;28;20219;-57
2022/12/01 05:18:35;;;;;;;33.37;16.17;;;6.60;99.90;;;;;;5035343;28;20203;-60
2022/12/01 05:21:04;;;;;;;34.43;17.00;;;6.60;99.90;;;;;;5035706;28;20619;-56
2022/12/01 05:23:33;;;;;;;36.80;18.10;;;6.70;99.90;;;;;;5035437;28;20198;-56
2022/12/01 05:26:01;;;;;;;36.93;18.37;;;6.60;99.90;;;;;;5035702;28;20202;-56
2022/12/01 05:28:28;;;;;;;32.40;16.70;;;6.60;99.90;;;;;;5036884;28;20206;-56
2022/12/01 05:30:55;;;;;;;31.40;17.70;;;6.70;99.90;;;;;;5037565;28;20200;-57
2022/12/01 05:33:23;;;;;;;36.87;17.33;;;6.70;99.90;;;;;;5040252;28;20313;-57
2022/12/01 05:35:50;;;;;;;29.17;16.07;;;6.70;99.90;;;;;;5037261;28;20683;-56
2022/12/01 05:38:18;;;;;;;32.97;16.37;;;6.60;99.90;;;;;;5038829;28;20233;-57
2022/12/01 05:40:52;;;;;;;31.13;15.80;;;6.60;99.90;;;;;;5035677;28;20542;-56
2022/12/01 05:43:21;;;;;;;34.87;17.00;;;6.60;99.90;;;;;;5037984;28;20202;-56
2022/12/01 05:45:55;;;;;;;34.07;18.03;;;6.70;99.90;;;;;;5037353;28;20246;-56
2022/12/01 05:48:22;;;;;;;38.60;18.10;;;6.70;99.90;;;;;;5037064;28;20607;-56
2022/12/01 05:50:49;;;;;;;33.20;16.53;;;6.70;99.90;;;;;;5040296;28;20212;-56
2022/12/01 05:53:16;;;;;;;33.77;17.53;;;6.80;99.90;;;;;;5038903;28;20295;-56
2022/12/01 05:55:43;;;;;;;35.80;17.57;;;6.70;99.90;;;;;;5037437;28;20289;-56
2022/12/01 05:58:11;;;;;;;34.87;16.90;;;6.70;99.90;;;;;;5037741;28;20207;-56
2022/12/01 06:00:38;;;;;;;29.80;15.87;;;6.70;99.90;;;;;;5038853;28;20651;-57
2022/12/01 06:03:12;;;;;;;34.60;16.07;;;6.60;99.90;;;;;;5036205;28;20210;-59
2022/12/01 06:05:39;;;;;;;36.13;17.13;;;6.60;99.90;;;;;;5029603;28;20735;-57
2022/12/01 06:08:06;;;;;;;33.87;16.67;;;6.70;99.90;;;;;;5037309;28;20194;-56
2022/12/01 06:10:33;;;;;;;31.43;16.13;;;6.60;99.90;;;;;;5036211;28;20685;-57
2022/12/01 06:13:00;;;;;;;37.07;17.13;;;6.70;99.90;;;;;;5038854;28;20832;-58
2022/12/01 06:15:27;;;;;;;35.20;17.57;;;6.70;99.90;;;;;;5037351;28;20237;-56
2022/12/01 06:17:53;;;;;;;34.17;17.17;;;6.70;99.90;;;;;;5036496;28;20251;-56
2022/12/01 06:20:22;;;;;;;32.07;16.40;;;6.70;99.90;;;;;;5038341;28;20190;-56
2022/12/01 06:22:49;;;;;;;38.93;17.37;;;6.60;99.90;;;;;;5038545;28;20487;-56
2022/12/01 06:25:16;;;;;;;35.30;17.33;;;6.70;99.90;;;;;;5037110;28;20565;-56
2022/12/01 06:27:43;;;;;;;32.83;17.53;;;6.80;99.90;;;;;;5036517;28;20198;-57
2022/12/01 06:30:10;;;;;;;37.37;17.97;;;6.80;99.90;;;;;;5037697;28;20205;-56
2022/12/01 06:32:37;;;;;;;32.50;16.77;;;6.80;99.90;;;;;;5035280;28;20598;-57
2022/12/01 06:35:04;;;;;;;36.47;17.63;;;6.80;99.90;;;;;;5034223;28;20613;-56
2022/12/01 06:37:31;;;;;;;32.20;17.67;;;6.80;99.90;;;;;;5036044;28;20850;-56
2022/12/01 06:39:58;;;;;;;38.53;18.07;;;6.70;99.90;;;;;;5035290;28;20313;-56
2022/12/01 06:42:28;;;;;;;31.27;14.93;;;6.80;99.90;;;;;;5034320;28;20234;-57
2022/12/01 06:44:55;;;;;;;33.83;16.03;;;6.70;99.90;;;;;;5038006;28;20212;-56
2022/12/01 06:47:21;;;;;;;39.10;18.53;;;6.70;99.90;;;;;;5036477;28;20207;-57
2022/12/01 06:49:48;;;;;;;36.57;16.77;;;6.70;99.90;;;;;;5018027;28;20602;-58
2022/12/01 06:52:15;;;;;;;36.00;17.37;;;6.70;99.90;;;;;;5035520;28;20287;-57
2022/12/01 06:54:42;;;;;;;31.27;17.13;;;6.80;99.90;;;;;;5034974;28;20211;-57
2022/12/01 06:57:09;;;;;;;35.40;18.27;;;6.90;99.90;;;;;;5039637;28;20208;-56
2022/12/01 06:59:36;;;;;;;30.53;17.40;;;6.80;99.90;;;;;;5040196;28;20607;-57
2022/12/01 07:02:03;;;;;;;36.87;16.83;;;7.00;99.90;;;;;;5028994;28;20284;-57
2022/12/01 07:04:30;;;;;;;33.20;17.33;;;6.90;99.90;;;;;;5034894;28;20561;-57
2022/12/01 07:06:56;;;;;;;34.33;17.67;;;6.90;99.90;;;;;;5039251;28;20251;-57
2022/12/01 07:09:23;;;;;;;35.57;17.63;;;6.80;99.90;;;;;;5040025;28;20206;-56
2022/12/01 07:11:50;;;;;;;36.93;18.13;;;6.70;99.90;;;;;;5041058;28;20307;-57
2022/12/01 07:14:25;;;;;;;32.77;16.13;;;6.70;99.90;;;;;;5041574;28;20211;-57
2022/12/01 07:16:52;;;;;;;35.83;16.87;;;6.80;99.90;;;;;;5040690;28;20236;-57
2022/12/01 07:19:19;;;;;;;35.40;18.13;;;6.80;99.90;;;;;;5037013;28;20200;-56
2022/12/01 07:21:46;;;;;;;33.63;17.00;;;6.90;99.90;;;;;;5041916;28;20583;-57
2022/12/01 07:24:13;;;;;;;32.93;17.37;;;7.00;99.90;;;;;;5023573;28;20207;-56
2022/12/01 07:26:41;;;;;;;36.23;18.23;;;6.90;99.90;;;;;;5041509;28;20254;-57
2022/12/01 07:29:09;;;;;;;34.00;16.90;;;6.90;99.90;;;;;;5038361;28;20645;-58
2022/12/01 07:31:37;;;;;;;36.13;17.37;;;6.90;99.90;;;;;;5041265;28;20308;-56
2022/12/01 07:34:04;;;;;;;33.17;16.90;;;6.90;99.90;;;;;;5037617;28;20591;-56
2022/12/01 07:36:31;;;;;;;31.33;17.03;;;6.80;99.90;;;;;;5033252;28;20216;-58
2022/12/01 07:38:58;;;;;;;33.30;17.57;;;6.80;99.90;;;;;;5034217;28;20999;-56
2022/12/01 07:41:25;;;;;;;31.97;16.50;;;6.80;99.90;;;;;;5033559;28;20542;-56
2022/12/01 07:43:53;;;;;;;35.10;17.77;;;6.70;99.90;;;;;;5032351;28;20205;-56
2022/12/01 07:46:23;;;;;;;34.93;17.40;;;6.70;99.90;;;;;;5012778;28;21984;-56
2022/12/01 07:48:51;;;;;;;30.67;16.63;;;6.70;99.90;;;;;;5028163;28;20657;-56
2022/12/01 07:51:19;;;;;;;31.73;15.93;;;6.70;99.90;;;;;;5040103;28;20557;-56
2022/12/01 07:53:50;;;;;;;33.65;16.77;;;6.70;99.90;;;;;;4668627;28;9999848;-56
2022/12/01 07:56:19;;;;;;;29.63;15.50;;;6.70;99.90;;;;;;5026067;28;20222;-55
2022/12/01 07:58:46;;;;;;;34.30;16.53;;;6.80;99.90;;;;;;5019366;28;20219;-57
2022/12/01 08:01:19;;;;;;;33.67;17.53;;;6.80;99.90;;;;;;5029944;28;20251;-57
2022/12/01 08:03:50;;;;;;;36.33;17.93;;;6.70;99.90;;;;;;5014548;28;20727;-55
2022/12/01 08:06:18;;;;;;;29.63;15.97;;;6.80;99.90;;;;;;5030454;28;20201;-60
2022/12/01 08:08:45;;;;;;;34.67;16.57;;;6.70;99.90;;;;;;5030016;28;20200;-56
2022/12/01 08:11:15;;;;;;;33.80;15.93;;;6.60;99.90;;;;;;5031007;28;20226;-56
2022/12/01 08:13:43;;;;;;;34.30;17.03;;;6.60;99.90;;;;;;5030112;28;20756;-55
2022/12/01 08:16:12;;;;;;;31.70;16.47;;;6.60;99.90;;;;;;5034929;28;20340;-57
2022/12/01 08:18:41;;;;;;;33.57;17.17;;;6.60;99.90;;;;;;5034661;28;20197;-56
2022/12/01 08:21:11;;;;;;;34.57;17.10;;;6.60;99.90;;;;;;5032301;28;20227;-56
2022/12/01 08:23:38;;;;;;;33.20;17.63;;;6.60;99.90;;;;;;5037164;28;20279;-57
2022/12/01 08:26:08;;;;;;;32.77;17.27;;;6.50;99.90;;;;;;5032180;28;20202;-56
2022/12/01 08:28:35;;;;;;;31.60;16.73;;;6.50;99.90;;;;;;5032189;28;21400;-55
2022/12/01 08:31:12;;;;;;;34.77;17.43;;;6.60;99.90;;;;;;5030413;28;20206;-56
2022/12/01 08:33:39;;;;;;;34.13;17.40;;;6.70;99.90;;;;;;5036405;28;20216;-56
2022/12/01 08:36:06;;;;;;;28.33;16.13;;;6.60;99.90;;;;;;5033902;28;20647;-56
2022/12/01 08:38:33;;;;;;;32.63;16.80;;;6.60;99.90;;;;;;5034192;28;20212;-56
2022/12/01 08:41:05;;;;;;;34.33;17.10;;;6.50;99.90;;;;;;5035222;28;20211;-56
2022/12/01 08:43:32;;;;;;;29.57;15.63;;;6.50;99.90;;;;;;5036435;28;20206;-56
2022/12/01 08:46:19;;;;;;;32.47;16.33;;;6.50;99.90;;;;;;5032927;28;20657;-56
2022/12/01 08:48:46;;;;;;;31.93;16.87;;;6.60;99.90;;;;;;5035119;28;20212;-57
2022/12/01 08:51:15;;;;;;;37.47;17.30;;;6.70;99.90;;;;;;5035502;28;20306;-58
2022/12/01 08:53:45;;;;;;;29.57;15.90;;;6.70;99.90;;;;;;5034206;28;20221;-57
2022/12/01 08:56:24;;;;;;;33.50;17.33;;;6.70;99.90;;;;;;5036908;28;20206;-57
2022/12/01 08:58:53;;;;;;;38.37;18.13;;;6.70;99.90;;;;;;5032293;28;20219;-56
2022/12/01 09:01:20;;;;;;;32.20;17.30;;;6.70;99.90;;;;;;5037599;28;20219;-59
2022/12/01 09:03:47;;;;;;;36.40;18.13;;;6.70;99.90;;;;;;5036310;28;20201;-58
2022/12/01 09:06:15;;;;;;;35.57;18.03;;;6.70;99.90;;;;;;5031509;28;20218;-56
2022/12/01 09:08:43;;;;;;;35.53;17.80;;;6.80;99.90;;;;;;5035538;28;20320;-56
2022/12/01 09:11:14;;;;;;;37.20;17.67;;;6.70;99.90;;;;;;5034281;28;20218;-56
2022/12/01 09:13:43;;;;;;;36.40;16.60;;;6.80;99.90;;;;;;5037113;28;20239;-56
2022/12/01 09:16:12;;;;;;;32.60;17.93;;;6.80;99.90;;;;;;5035535;28;20192;-57
2022/12/01 09:18:39;;;;;;;32.83;16.83;;;6.80;99.90;;;;;;5034173;28;20220;-56
2022/12/01 09:21:17;;;;;;;37.00;18.37;;;6.80;99.90;;;;;;5033902;28;20562;-56
2022/12/01 09:23:44;;;;;;;34.80;17.27;;;6.70;99.90;;;;;;5033464;28;20268;-56
2022/12/01 09:26:11;;;;;;;29.40;17.00;;;6.80;99.90;;;;;;5018858;28;20212;-56
2022/12/01 09:28:39;;;;;;;32.47;17.37;;;6.90;99.90;;;;;;5035112;28;20586;-56
2022/12/01 09:31:09;;;;;;;29.17;15.50;;;7.00;99.90;;;;;;5036087;28;20201;-56
2022/12/01 09:33:36;;;;;;;31.67;15.60;;;6.80;99.90;;;;;;5034039;28;20220;-56
2022/12/01 09:36:04;;;;;;;32.73;15.67;;;6.80;99.90;;;;;;5038245;28;20251;-56
2022/12/01 09:38:33;;;;;;;33.83;16.30;;;6.70;99.90;;;;;;5033410;28;20331;-56
2022/12/01 09:41:04;;;;;;;30.07;15.57;;;6.80;99.90;;;;;;5036917;28;20314;-56
2022/12/01 09:43:45;;;;;;;30.33;15.27;;;6.80;99.90;;;;;;5034265;28;20684;-56
2022/12/01 09:46:19;;;;;;;30.07;14.53;;;6.70;99.90;;;;;;5034291;28;20197;-57
2022/12/01 09:48:49;;;;;;;38.00;17.30;;;6.80;99.90;;;;;;5034579;28;20226;-56
2022/12/01 09:51:21;;;;;;;30.60;16.43;;;6.80;99.90;;;;;;5017346;28;20212;-56
2022/12/01 09:53:52;;;;;;;31.27;16.37;;;7.00;99.90;;;;;;5033838;28;20205;-56
2022/12/01 09:56:21;;;;;;;33.87;17.53;;;6.90;99.90;;;;;;5033365;28;20555;-55
2022/12/01 09:58:54;;;;;;;35.77;16.83;;;6.90;99.90;;;;;;5030950;28;20833;-58
2022/12/01 10:01:36;;;;;;;34.73;17.27;;;7.00;99.90;;;;;;5020560;28;20227;-57
2022/12/01 10:04:33;;;;;;;35.70;16.30;;;6.90;99.90;;;;;;5039345;28;20285;-57
2022/12/01 10:07:15;;;;;;;35.87;17.53;;;7.00;99.90;;;;;;5037100;28;20845;-56
2022/12/01 10:09:55;;;;;;;36.00;18.53;;;7.10;99.90;;;;;;5031528;28;20285;-56
2022/12/01 10:12:26;;;;;;;38.60;18.60;;;7.00;99.90;;;;;;5045807;28;20232;-56
2022/12/01 10:15:12;;;;;;;40.97;18.23;;;7.10;99.90;;;;;;5031892;28;20301;-57
2022/12/01 10:18:00;;;;;;;38.37;17.63;;;7.00;99.90;;;;;;5036297;28;20219;-57
2022/12/01 10:20:43;;;;;;;38.10;18.40;;;7.00;99.90;;;;;;5034272;28;20664;-57
2022/12/01 10:23:40;;;;;;;31.53;16.17;;;7.10;99.90;;;;;;5035841;28;20254;-56
2022/12/01 10:26:22;;;;;;;37.80;18.30;;;7.00;99.90;;;;;;5017610;28;20672;-56
2022/12/01 10:29:22;;;;;;;37.97;18.00;;;7.00;99.90;;;;;;5037888;28;20197;-56
2022/12/01 10:31:56;;;;;;;36.10;17.90;;;7.00;99.90;;;;;;5040373;28;21042;-58
2022/12/01 10:34:32;;;;;;;36.07;17.50;;;7.10;99.90;;;;;;5041392;28;20207;-57
2022/12/01 10:36:59;;;;;;;36.77;18.63;;;7.30;99.90;;;;;;5039739;28;21049;-57
2022/12/01 10:39:42;;;;;;;40.30;19.47;;;7.40;99.90;;;;;;5039625;28;20713;-58
2022/12/01 10:42:27;;;;;;;38.57;18.20;;;7.50;99.90;;;;;;5039560;28;20207;-58
2022/12/01 10:44:56;;;;;;;43.03;17.63;;;7.60;99.90;;;;;;5038223;28;20228;-57
2022/12/01 10:47:24;;;;;;;42.57;18.93;;;7.50;99.90;;;;;;5039152;28;20231;-57
2022/12/01 10:49:51;;;;;;;39.37;18.77;;;7.60;99.90;;;;;;5030611;28;20595;-56
2022/12/01 10:52:40;;;;;;;37.93;18.63;;;7.70;99.90;;;;;;5034051;28;20654;-57
2022/12/01 10:55:22;;;;;;;38.13;17.77;;;7.70;99.90;;;;;;5039244;28;20214;-58
2022/12/01 10:57:51;;;;;;;36.10;17.83;;;7.80;99.90;;;;;;5040872;28;20217;-57
2022/12/01 11:00:26;;;;;;;39.93;18.93;;;7.90;99.90;;;;;;5039455;28;20571;-58
2022/12/01 11:03:22;;;;;;;32.63;17.20;;;8.00;99.90;;;;;;5039840;28;20205;-57
2022/12/01 11:05:56;;;;;;;40.63;19.23;;;8.00;99.90;;;;;;5036144;28;20195;-56
2022/12/01 11:08:48;;;;;;;37.60;18.10;;;8.00;99.90;;;;;;5036154;28;20207;-57
2022/12/01 11:11:33;;;;;;;36.67;18.00;;;8.10;99.90;;;;;;5029391;28;20681;-57
2022/12/01 11:14:04;;;;;;;32.03;16.47;;;8.20;99.90;;;;;;5038864;28;20200;-56
2022/12/01 11:16:37;;;;;;;37.90;18.03;;;8.40;99.90;;;;;;5037266;28;20578;-57
2022/12/01 11:19:18;;;;;;;39.70;18.33;;;8.50;99.90;;;;;;5041151;28;20562;-57
2022/12/01 11:21:56;;;;;;;39.30;17.03;;;8.50;99.90;;;;;;5041267;28;20323;-57
2022/12/01 11:24:43;;;;;;;29.97;17.23;;;8.60;99.90;;;;;;5034254;28;20345;-56
2022/12/01 11:27:33;;;;;;;35.83;17.70;;;8.80;99.90;;;;;;5038270;28;20648;-57
2022/12/01 11:30:24;;;;;;;31.40;17.03;;;8.70;99.90;;;;;;5037293;28;20202;-58
2022/12/01 11:33:00;;;;;;;34.30;17.33;;;8.80;99.90;;;;;;5011759;28;20233;-57
2022/12/01 11:35:30;;;;;;;36.27;17.97;;;9.00;99.90;;;;;;5034948;28;20197;-57
2022/12/01 11:38:00;;;;;;;35.43;18.60;;;9.10;99.90;;;;;;5030685;28;20249;-57
2022/12/01 11:40:54;;;;;;;37.67;18.23;;;9.00;99.90;;;;;;5035069;28;20553;-57
2022/12/01 11:43:34;;;;;;;37.23;17.50;;;9.10;99.90;;;;;;5038547;28;20259;-57
2022/12/01 11:46:07;;;;;;;39.17;19.07;;;9.20;99.90;;;;;;5038517;28;20204;-57
2022/12/01 11:48:35;;;;;;;43.57;19.53;;;9.40;99.90;;;;;;5028939;28;20220;-57
2022/12/01 11:51:36;;;;;;;34.90;17.67;;;9.80;99.90;;;;;;5025258;28;20219;-57
2022/12/01 11:54:15;;;;;;;34.30;16.97;;;9.40;99.90;;;;;;5026674;28;20216;-58
2022/12/01 11:56:43;;;;;;;29.17;15.80;;;9.30;99.90;;;;;;5035474;28;20255;-57
2022/12/01 11:59:12;;;;;;;36.13;18.97;;;9.20;99.90;;;;;;5028268;28;20354;-57
2022/12/01 12:02:13;;;;;;;32.27;16.60;;;9.10;99.90;;;;;;5030496;28;20202;-57
2022/12/01 12:05:38;;;;;;;33.57;17.33;;;8.90;99.90;;;;;;5031463;28;20354;-57
2022/12/01 12:08:22;;;;;;;30.70;17.17;;;8.70;99.90;;;;;;4971147;28;20601;-57
2022/12/01 12:11:02;;;;;;;31.57;16.77;;;8.70;99.90;;;;;;5016594;28;20638;-56
2022/12/01 12:14:07;;;;;;;34.13;17.70;;;8.70;99.90;;;;;;5017922;28;20247;-57
2022/12/01 12:16:57;;;;;;;35.03;15.63;;;8.60;99.90;;;;;;5031642;28;20563;-56
2022/12/01 12:19:45;;;;;;;31.83;15.77;;;8.60;99.90;;;;;;5032186;28;20228;-56
2022/12/01 12:22:53;;;;;;;28.10;15.30;;;8.60;99.90;;;;;;5034864;28;20259;-55
2022/12/01 12:25:45;;;;;;;30.70;15.83;;;8.40;99.90;;;;;;5023695;28;20606;-56
2022/12/01 12:28:28;;;;;;;32.33;16.17;;;8.40;99.90;;;;;;5031762;28;20207;-56
2022/12/01 12:31:32;;;;;;;32.30;16.70;;;8.30;99.90;;;;;;5029823;28;20797;-56
2022/12/01 12:34:11;;;;;;;28.70;14.93;;;8.30;99.90;;;;;;5026365;28;20229;-56
2022/12/01 12:36:42;;;;;;;28.20;14.93;;;8.30;99.90;;;;;;5023109;28;20594;-56
2022/12/01 12:39:25;;;;;;;35.10;16.73;;;8.40;99.90;;;;;;5013221;28;20312;-56
2022/12/01 12:41:54;;;;;;;33.13;17.47;;;8.30;99.90;;;;;;5029272;28;20248;-57
2022/12/01 12:44:27;;;;;;;33.97;18.00;;;8.20;99.90;;;;;;5025378;28;20831;-56
2022/12/01 12:47:17;;;;;;;37.30;17.53;;;8.20;99.90;;;;;;5026284;28;20860;-56
2022/12/01 12:50:15;;;;;;;28.63;15.80;;;8.30;99.90;;;;;;5025670;28;20291;-56
2022/12/01 12:52:47;;;;;;;31.00;17.10;;;8.20;99.90;;;;;;5032024;28;20345;-56
2022/12/01 12:55:14;;;;;;;30.57;17.00;;;8.10;99.90;;;;;;5022404;28;20653;-56
2022/12/01 12:57:52;;;;;;;31.57;16.73;;;8.10;99.90;;;;;;5032214;28;20229;-56
2022/12/01 13:00:25;;;;;;;32.87;17.20;;;8.20;99.90;;;;;;5032493;28;20248;-56
2022/12/01 13:02:55;;;;;;;30.97;16.57;;;8.20;99.90;;;;;;5030609;28;20206;-56
2022/12/01 13:05:42;;;;;;;29.27;15.77;;;8.20;99.90;;;;;;5032469;28;20285;-56
2022/12/01 13:08:15;;;;;;;33.03;15.97;;;8.20;99.90;;;;;;5028700;28;20208;-56
2022/12/01 13:11:06;;;;;;;30.73;16.07;;;8.20;99.90;;;;;;5037795;28;20586;-56
2022/12/01 13:13:55;;;;;;;31.13;15.83;;;8.00;99.90;;;;;;5035370;28;20205;-56